sensor_id;sensor_type;location;lat;lon;timestamp;P1;durP1;ratioP1;P2;durP2;ratioP2
68690;SDS011;55675;49.588;8.640;2022-10-30T00:00:09;12.90;;;6.70;;
68690;SDS011;55675;49.588;8.640;2022-10-30T00:02:35;11.43;;;7.03;;
68690;SDS011;55675;49.588;8.640;2022-10-30T00:05:00;11.33;;;7.40;;
68690;SDS011;55675;49.588;8.640;2022-10-30T00:07:26;10.17;;;7.13;;
68690;SDS011;55675;49.588;8.640;2022-10-30T00:09:51;10.00;;;7.40;;
68690;SDS011;55675;49.588;8.640;2022-10-30T00:12:17;12.17;;;7.20;;
68690;SDS011;55675;49.588;8.640;2022-10-30T00:14:42;12.10;;;7.53;;
68690;SDS011;55675;49.588;8.640;2022-10-30T00:17:08;12.50;;;7.00;;
68690;SDS011;55675;49.588;8.640;2022-10-30T00:19:33;11.33;;;7.23;;
68690;SDS011;55675;49.588;8.640;2022-10-30T00:21:59;12.57;;;7.03;;
68690;SDS011;55675;49.588;8.640;2022-10-30T00:24:26;10.87;;;7.33;;
68690;SDS011;55675;49.588;8.640;2022-10-30T00:26:52;12.47;;;7.10;;
68690;SDS011;55675;49.588;8.640;2022-10-30T00:29:18;14.87;;;7.30;;
68690;SDS011;55675;49.588;8.640;2022-10-30T00:31:43;10.90;;;7.47;;
68690;SDS011;55675;49.588;8.640;2022-10-30T00:34:09;10.57;;;7.13;;
68690;SDS011;55675;49.588;8.640;2022-10-30T00:36:34;9.97;;;6.83;;
68690;SDS011;55675;49.588;8.640;2022-10-30T00:39:00;10.20;;;6.80;;
68690;SDS011;55675;49.588;8.640;2022-10-30T00:41:25;14.17;;;7.77;;
68690;SDS011;55675;49.588;8.640;2022-10-30T00:43:51;11.70;;;7.60;;
68690;SDS011;55675;49.588;8.640;2022-10-30T00:46:24;12.87;;;7.73;;
68690;SDS011;55675;49.588;8.640;2022-10-30T00:49:02;12.67;;;6.67;;
68690;SDS011;55675;49.588;8.640;2022-10-30T00:51:36;13.93;;;7.17;;
68690;SDS011;55675;49.588;8.640;2022-10-30T00:54:06;12.33;;;7.00;;
68690;SDS011;55675;49.588;8.640;2022-10-30T00:56:32;13.73;;;6.90;;
68690;SDS011;55675;49.588;8.640;2022-10-30T00:59:00;10.73;;;6.70;;
68690;SDS011;55675;49.588;8.640;2022-10-30T01:01:31;13.10;;;7.37;;
68690;SDS011;55675;49.588;8.640;2022-10-30T01:04:00;9.63;;;6.83;;
68690;SDS011;55675;49.588;8.640;2022-10-30T01:06:28;9.67;;;7.50;;
68690;SDS011;55675;49.588;8.640;2022-10-30T01:08:57;11.87;;;7.13;;
68690;SDS011;55675;49.588;8.640;2022-10-30T01:11:23;11.23;;;7.50;;
68690;SDS011;55675;49.588;8.640;2022-10-30T01:13:49;9.77;;;7.40;;
68690;SDS011;55675;49.588;8.640;2022-10-30T01:19:02;11.77;;;7.30;;
68690;SDS011;55675;49.588;8.640;2022-10-30T01:32:44;10.63;;;6.73;;
68690;SDS011;55675;49.588;8.640;2022-10-30T01:35:16;13.87;;;6.67;;
68690;SDS011;55675;49.588;8.640;2022-10-30T01:37:53;8.60;;;6.80;;
68690;SDS011;55675;49.588;8.640;2022-10-30T01:40:26;12.37;;;6.97;;
68690;SDS011;55675;49.588;8.640;2022-10-30T01:42:53;11.37;;;7.13;;
68690;SDS011;55675;49.588;8.640;2022-10-30T01:58:33;9.33;;;6.93;;
68690;SDS011;55675;49.588;8.640;2022-10-30T02:01:06;12.57;;;6.80;;
68690;SDS011;55675;49.588;8.640;2022-10-30T02:03:32;10.10;;;6.23;;
68690;SDS011;55675;49.588;8.640;2022-10-30T02:05:57;11.97;;;7.13;;
68690;SDS011;55675;49.588;8.640;2022-10-30T02:08:23;12.93;;;7.13;;
68690;SDS011;55675;49.588;8.640;2022-10-30T02:10:50;10.33;;;6.27;;
68690;SDS011;55675;49.588;8.640;2022-10-30T02:13:16;9.20;;;6.40;;
68690;SDS011;55675;49.588;8.640;2022-10-30T02:15:42;10.07;;;6.80;;
68690;SDS011;55675;49.588;8.640;2022-10-30T02:18:09;10.83;;;7.00;;
68690;SDS011;55675;49.588;8.640;2022-10-30T02:20:34;11.47;;;6.60;;
68690;SDS011;55675;49.588;8.640;2022-10-30T02:23:01;11.73;;;7.23;;
68690;SDS011;55675;49.588;8.640;2022-10-30T02:25:27;10.63;;;6.53;;
68690;SDS011;55675;49.588;8.640;2022-10-30T02:27:52;9.33;;;6.67;;
68690;SDS011;55675;49.588;8.640;2022-10-30T02:30:18;11.00;;;6.87;;
68690;SDS011;55675;49.588;8.640;2022-10-30T02:32:43;12.93;;;7.10;;
68690;SDS011;55675;49.588;8.640;2022-10-30T02:35:09;12.63;;;6.73;;
68690;SDS011;55675;49.588;8.640;2022-10-30T02:37:34;11.03;;;7.13;;
68690;SDS011;55675;49.588;8.640;2022-10-30T02:40:03;13.03;;;6.93;;
68690;SDS011;55675;49.588;8.640;2022-10-30T02:42:29;9.43;;;7.27;;
68690;SDS011;55675;49.588;8.640;2022-10-30T02:44:55;11.33;;;6.50;;
68690;SDS011;55675;49.588;8.640;2022-10-30T02:47:21;8.57;;;6.27;;
68690;SDS011;55675;49.588;8.640;2022-10-30T02:49:46;12.63;;;6.57;;
68690;SDS011;55675;49.588;8.640;2022-10-30T02:52:12;10.13;;;6.43;;
68690;SDS011;55675;49.588;8.640;2022-10-30T02:54:37;13.03;;;6.70;;
68690;SDS011;55675;49.588;8.640;2022-10-30T02:57:03;13.10;;;6.40;;
68690;SDS011;55675;49.588;8.640;2022-10-30T02:59:28;9.23;;;6.80;;
68690;SDS011;55675;49.588;8.640;2022-10-30T03:01:54;10.73;;;7.23;;
68690;SDS011;55675;49.588;8.640;2022-10-30T03:04:19;10.10;;;7.13;;
68690;SDS011;55675;49.588;8.640;2022-10-30T03:06:45;11.03;;;7.13;;
68690;SDS011;55675;49.588;8.640;2022-10-30T03:09:10;9.30;;;6.47;;
68690;SDS011;55675;49.588;8.640;2022-10-30T03:11:36;12.27;;;6.80;;
68690;SDS011;55675;49.588;8.640;2022-10-30T03:14:02;10.43;;;6.30;;
68690;SDS011;55675;49.588;8.640;2022-10-30T03:16:27;8.80;;;6.10;;
68690;SDS011;55675;49.588;8.640;2022-10-30T03:18:54;7.43;;;6.43;;
68690;SDS011;55675;49.588;8.640;2022-10-30T03:21:21;10.40;;;6.30;;
68690;SDS011;55675;49.588;8.640;2022-10-30T03:23:47;10.20;;;6.53;;
68690;SDS011;55675;49.588;8.640;2022-10-30T03:26:17;10.87;;;6.30;;
68690;SDS011;55675;49.588;8.640;2022-10-30T03:28:43;11.13;;;6.30;;
68690;SDS011;55675;49.588;8.640;2022-10-30T03:31:09;9.50;;;5.80;;
68690;SDS011;55675;49.588;8.640;2022-10-30T03:33:36;10.17;;;6.23;;
68690;SDS011;55675;49.588;8.640;2022-10-30T03:36:03;8.87;;;6.70;;
68690;SDS011;55675;49.588;8.640;2022-10-30T03:38:30;12.17;;;7.17;;
68690;SDS011;55675;49.588;8.640;2022-10-30T03:40:56;9.53;;;7.27;;
68690;SDS011;55675;49.588;8.640;2022-10-30T03:43:21;12.07;;;7.30;;
68690;SDS011;55675;49.588;8.640;2022-10-30T03:45:47;12.57;;;6.53;;
68690;SDS011;55675;49.588;8.640;2022-10-30T03:48:15;11.37;;;7.67;;
68690;SDS011;55675;49.588;8.640;2022-10-30T03:50:41;11.57;;;7.23;;
68690;SDS011;55675;49.588;8.640;2022-10-30T03:53:07;9.87;;;6.40;;
68690;SDS011;55675;49.588;8.640;2022-10-30T03:55:32;7.57;;;6.70;;
68690;SDS011;55675;49.588;8.640;2022-10-30T03:57:58;11.03;;;6.73;;
68690;SDS011;55675;49.588;8.640;2022-10-30T04:00:23;14.53;;;8.20;;
68690;SDS011;55675;49.588;8.640;2022-10-30T04:02:49;10.97;;;7.07;;
68690;SDS011;55675;49.588;8.640;2022-10-30T04:05:17;12.37;;;7.13;;
68690;SDS011;55675;49.588;8.640;2022-10-30T04:07:44;12.00;;;7.33;;
68690;SDS011;55675;49.588;8.640;2022-10-30T04:10:10;10.83;;;7.00;;
68690;SDS011;55675;49.588;8.640;2022-10-30T04:12:37;10.17;;;6.50;;
68690;SDS011;55675;49.588;8.640;2022-10-30T04:15:03;10.13;;;7.00;;
68690;SDS011;55675;49.588;8.640;2022-10-30T04:17:29;9.13;;;6.50;;
68690;SDS011;55675;49.588;8.640;2022-10-30T04:19:55;12.33;;;7.30;;
68690;SDS011;55675;49.588;8.640;2022-10-30T04:22:20;10.97;;;6.47;;
68690;SDS011;55675;49.588;8.640;2022-10-30T04:24:46;12.07;;;7.27;;
68690;SDS011;55675;49.588;8.640;2022-10-30T04:27:13;9.97;;;6.83;;
68690;SDS011;55675;49.588;8.640;2022-10-30T04:29:39;10.90;;;6.83;;
68690;SDS011;55675;49.588;8.640;2022-10-30T04:32:06;10.87;;;7.47;;
68690;SDS011;55675;49.588;8.640;2022-10-30T04:34:32;12.13;;;7.20;;
68690;SDS011;55675;49.588;8.640;2022-10-30T04:36:57;13.30;;;6.90;;
68690;SDS011;55675;49.588;8.640;2022-10-30T04:39:23;9.83;;;6.20;;
68690;SDS011;55675;49.588;8.640;2022-10-30T04:41:48;10.37;;;6.63;;
68690;SDS011;55675;49.588;8.640;2022-10-30T04:44:14;11.83;;;6.70;;
68690;SDS011;55675;49.588;8.640;2022-10-30T04:46:39;12.30;;;7.13;;
68690;SDS011;55675;49.588;8.640;2022-10-30T04:49:05;11.33;;;7.13;;
68690;SDS011;55675;49.588;8.640;2022-10-30T04:51:31;8.53;;;7.10;;
68690;SDS011;55675;49.588;8.640;2022-10-30T04:53:56;11.60;;;6.40;;
68690;SDS011;55675;49.588;8.640;2022-10-30T04:56:22;11.27;;;7.23;;
68690;SDS011;55675;49.588;8.640;2022-10-30T04:58:48;13.60;;;7.47;;
68690;SDS011;55675;49.588;8.640;2022-10-30T05:01:13;11.03;;;6.70;;
68690;SDS011;55675;49.588;8.640;2022-10-30T05:03:39;10.50;;;6.90;;
68690;SDS011;55675;49.588;8.640;2022-10-30T05:06:06;11.27;;;5.27;;
68690;SDS011;55675;49.588;8.640;2022-10-30T05:08:38;8.87;;;5.80;;
68690;SDS011;55675;49.588;8.640;2022-10-30T05:11:03;9.10;;;6.50;;
68690;SDS011;55675;49.588;8.640;2022-10-30T05:13:29;9.83;;;6.40;;
68690;SDS011;55675;49.588;8.640;2022-10-30T05:15:55;11.27;;;7.23;;
68690;SDS011;55675;49.588;8.640;2022-10-30T05:18:21;9.93;;;6.63;;
68690;SDS011;55675;49.588;8.640;2022-10-30T05:20:46;10.47;;;6.73;;
68690;SDS011;55675;49.588;8.640;2022-10-30T05:23:12;11.17;;;7.00;;
68690;SDS011;55675;49.588;8.640;2022-10-30T05:25:37;12.93;;;7.20;;
68690;SDS011;55675;49.588;8.640;2022-10-30T05:28:04;10.87;;;7.27;;
68690;SDS011;55675;49.588;8.640;2022-10-30T05:30:31;8.20;;;7.30;;
68690;SDS011;55675;49.588;8.640;2022-10-30T05:32:58;10.83;;;7.13;;
68690;SDS011;55675;49.588;8.640;2022-10-30T05:35:25;11.73;;;7.40;;
68690;SDS011;55675;49.588;8.640;2022-10-30T05:37:51;11.57;;;6.77;;
68690;SDS011;55675;49.588;8.640;2022-10-30T05:40:16;10.53;;;6.73;;
68690;SDS011;55675;49.588;8.640;2022-10-30T05:42:45;11.90;;;7.07;;
68690;SDS011;55675;49.588;8.640;2022-10-30T05:45:12;13.37;;;8.00;;
68690;SDS011;55675;49.588;8.640;2022-10-30T05:47:38;11.33;;;7.37;;
68690;SDS011;55675;49.588;8.640;2022-10-30T05:50:04;13.90;;;7.30;;
68690;SDS011;55675;49.588;8.640;2022-10-30T05:52:30;11.83;;;7.53;;
68690;SDS011;55675;49.588;8.640;2022-10-30T05:54:55;8.60;;;6.43;;
68690;SDS011;55675;49.588;8.640;2022-10-30T05:57:21;10.53;;;6.10;;
68690;SDS011;55675;49.588;8.640;2022-10-30T05:59:46;5.53;;;5.00;;
68690;SDS011;55675;49.588;8.640;2022-10-30T06:02:12;11.27;;;5.10;;
68690;SDS011;55675;49.588;8.640;2022-10-30T06:04:37;8.77;;;5.20;;
68690;SDS011;55675;49.588;8.640;2022-10-30T06:07:03;14.03;;;6.23;;
68690;SDS011;55675;49.588;8.640;2022-10-30T06:09:28;10.47;;;5.80;;
68690;SDS011;55675;49.588;8.640;2022-10-30T06:11:54;12.53;;;6.50;;
68690;SDS011;55675;49.588;8.640;2022-10-30T06:14:20;9.90;;;6.07;;
68690;SDS011;55675;49.588;8.640;2022-10-30T06:16:46;8.77;;;6.43;;
68690;SDS011;55675;49.588;8.640;2022-10-30T06:19:11;8.90;;;5.73;;
68690;SDS011;55675;49.588;8.640;2022-10-30T06:21:37;9.17;;;6.07;;
68690;SDS011;55675;49.588;8.640;2022-10-30T06:24:02;9.27;;;6.70;;
68690;SDS011;55675;49.588;8.640;2022-10-30T06:26:28;9.43;;;6.50;;
68690;SDS011;55675;49.588;8.640;2022-10-30T06:28:54;10.57;;;7.07;;
68690;SDS011;55675;49.588;8.640;2022-10-30T06:31:19;10.57;;;6.70;;
68690;SDS011;55675;49.588;8.640;2022-10-30T06:33:45;9.97;;;6.60;;
68690;SDS011;55675;49.588;8.640;2022-10-30T06:36:10;23.90;;;15.90;;
68690;SDS011;55675;49.588;8.640;2022-10-30T06:38:36;26.37;;;16.57;;
68690;SDS011;55675;49.588;8.640;2022-10-30T06:41:01;22.27;;;14.57;;
68690;SDS011;55675;49.588;8.640;2022-10-30T06:43:27;15.30;;;10.07;;
68690;SDS011;55675;49.588;8.640;2022-10-30T06:45:53;17.20;;;10.63;;
68690;SDS011;55675;49.588;8.640;2022-10-30T06:48:18;18.43;;;9.87;;
68690;SDS011;55675;49.588;8.640;2022-10-30T06:50:44;13.73;;;8.40;;
68690;SDS011;55675;49.588;8.640;2022-10-30T06:53:09;12.17;;;7.50;;
68690;SDS011;55675;49.588;8.640;2022-10-30T06:55:35;13.60;;;7.23;;
68690;SDS011;55675;49.588;8.640;2022-10-30T06:58:00;10.30;;;7.20;;
68690;SDS011;55675;49.588;8.640;2022-10-30T07:00:26;14.37;;;7.87;;
68690;SDS011;55675;49.588;8.640;2022-10-30T07:02:58;11.37;;;8.00;;
68690;SDS011;55675;49.588;8.640;2022-10-30T07:05:24;13.90;;;8.77;;
68690;SDS011;55675;49.588;8.640;2022-10-30T07:07:49;11.13;;;7.73;;
68690;SDS011;55675;49.588;8.640;2022-10-30T07:10:15;9.10;;;7.57;;
68690;SDS011;55675;49.588;8.640;2022-10-30T07:12:41;9.97;;;6.70;;
68690;SDS011;55675;49.588;8.640;2022-10-30T07:15:06;9.93;;;6.33;;
68690;SDS011;55675;49.588;8.640;2022-10-30T07:17:32;9.53;;;7.30;;
68690;SDS011;55675;49.588;8.640;2022-10-30T07:19:57;10.97;;;7.90;;
68690;SDS011;55675;49.588;8.640;2022-10-30T07:22:23;7.07;;;6.00;;
68690;SDS011;55675;49.588;8.640;2022-10-30T07:24:49;9.90;;;6.50;;
68690;SDS011;55675;49.588;8.640;2022-10-30T07:27:14;10.77;;;6.63;;
68690;SDS011;55675;49.588;8.640;2022-10-30T07:29:40;10.63;;;6.90;;
68690;SDS011;55675;49.588;8.640;2022-10-30T07:32:05;10.37;;;6.27;;
68690;SDS011;55675;49.588;8.640;2022-10-30T07:34:31;8.63;;;6.40;;
68690;SDS011;55675;49.588;8.640;2022-10-30T07:36:56;7.10;;;5.57;;
68690;SDS011;55675;49.588;8.640;2022-10-30T07:39:22;10.77;;;6.20;;
68690;SDS011;55675;49.588;8.640;2022-10-30T07:41:48;9.97;;;6.07;;
68690;SDS011;55675;49.588;8.640;2022-10-30T07:44:14;9.10;;;6.67;;
68690;SDS011;55675;49.588;8.640;2022-10-30T07:46:40;10.20;;;6.43;;
68690;SDS011;55675;49.588;8.640;2022-10-30T07:49:05;9.10;;;6.03;;
68690;SDS011;55675;49.588;8.640;2022-10-30T07:51:31;12.33;;;6.90;;
68690;SDS011;55675;49.588;8.640;2022-10-30T07:53:56;9.37;;;6.23;;
68690;SDS011;55675;49.588;8.640;2022-10-30T07:56:22;10.53;;;6.47;;
68690;SDS011;55675;49.588;8.640;2022-10-30T07:58:47;9.30;;;5.93;;
68690;SDS011;55675;49.588;8.640;2022-10-30T08:01:13;12.27;;;6.90;;
68690;SDS011;55675;49.588;8.640;2022-10-30T08:03:38;8.60;;;6.20;;
68690;SDS011;55675;49.588;8.640;2022-10-30T08:06:04;15.83;;;6.77;;
68690;SDS011;55675;49.588;8.640;2022-10-30T08:08:29;12.03;;;5.77;;
68690;SDS011;55675;49.588;8.640;2022-10-30T08:10:56;10.03;;;6.47;;
68690;SDS011;55675;49.588;8.640;2022-10-30T08:13:21;12.57;;;6.60;;
68690;SDS011;55675;49.588;8.640;2022-10-30T08:15:47;10.20;;;7.30;;
68690;SDS011;55675;49.588;8.640;2022-10-30T08:18:13;12.77;;;7.20;;
68690;SDS011;55675;49.588;8.640;2022-10-30T08:20:39;10.20;;;6.27;;
68690;SDS011;55675;49.588;8.640;2022-10-30T08:23:04;9.97;;;6.53;;
68690;SDS011;55675;49.588;8.640;2022-10-30T08:25:30;12.20;;;6.67;;
68690;SDS011;55675;49.588;8.640;2022-10-30T08:28:02;8.93;;;6.03;;
68690;SDS011;55675;49.588;8.640;2022-10-30T08:30:32;9.90;;;6.77;;
68690;SDS011;55675;49.588;8.640;2022-10-30T08:32:59;11.80;;;6.73;;
68690;SDS011;55675;49.588;8.640;2022-10-30T08:35:28;12.87;;;6.77;;
68690;SDS011;55675;49.588;8.640;2022-10-30T08:37:55;9.97;;;6.80;;
68690;SDS011;55675;49.588;8.640;2022-10-30T08:40:21;12.30;;;6.73;;
68690;SDS011;55675;49.588;8.640;2022-10-30T08:42:54;11.27;;;7.10;;
68690;SDS011;55675;49.588;8.640;2022-10-30T08:45:21;13.40;;;7.50;;
68690;SDS011;55675;49.588;8.640;2022-10-30T08:47:54;10.60;;;7.07;;
68690;SDS011;55675;49.588;8.640;2022-10-30T08:50:21;14.67;;;7.30;;
68690;SDS011;55675;49.588;8.640;2022-10-30T08:52:46;12.47;;;8.03;;
68690;SDS011;55675;49.588;8.640;2022-10-30T08:55:12;13.73;;;7.37;;
68690;SDS011;55675;49.588;8.640;2022-10-30T08:57:38;12.20;;;7.70;;
68690;SDS011;55675;49.588;8.640;2022-10-30T09:00:04;10.43;;;7.57;;
68690;SDS011;55675;49.588;8.640;2022-10-30T09:02:31;10.80;;;7.87;;
68690;SDS011;55675;49.588;8.640;2022-10-30T09:04:58;10.60;;;7.10;;
68690;SDS011;55675;49.588;8.640;2022-10-30T09:07:23;13.93;;;7.17;;
68690;SDS011;55675;49.588;8.640;2022-10-30T09:09:49;12.27;;;7.43;;
68690;SDS011;55675;49.588;8.640;2022-10-30T09:12:14;10.40;;;7.30;;
68690;SDS011;55675;49.588;8.640;2022-10-30T09:14:40;11.93;;;7.63;;
68690;SDS011;55675;49.588;8.640;2022-10-30T09:17:07;13.60;;;8.10;;
68690;SDS011;55675;49.588;8.640;2022-10-30T09:19:33;10.27;;;7.33;;
68690;SDS011;55675;49.588;8.640;2022-10-30T09:21:58;15.20;;;7.53;;
68690;SDS011;55675;49.588;8.640;2022-10-30T09:24:24;11.57;;;6.77;;
68690;SDS011;55675;49.588;8.640;2022-10-30T09:26:49;12.23;;;7.03;;
68690;SDS011;55675;49.588;8.640;2022-10-30T09:29:15;12.17;;;7.53;;
68690;SDS011;55675;49.588;8.640;2022-10-30T09:31:40;11.37;;;7.60;;
68690;SDS011;55675;49.588;8.640;2022-10-30T09:34:06;13.50;;;7.87;;
68690;SDS011;55675;49.588;8.640;2022-10-30T09:36:32;11.53;;;7.43;;
68690;SDS011;55675;49.588;8.640;2022-10-30T09:38:57;14.80;;;8.50;;
68690;SDS011;55675;49.588;8.640;2022-10-30T09:49:31;12.23;;;7.53;;
68690;SDS011;55675;49.588;8.640;2022-10-30T09:55:27;14.33;;;7.77;;
68690;SDS011;55675;49.588;8.640;2022-10-30T10:00:34;10.37;;;6.57;;
68690;SDS011;55675;49.588;8.640;2022-10-30T10:05:45;8.77;;;6.67;;
68690;SDS011;55675;49.588;8.640;2022-10-30T10:08:23;9.87;;;6.37;;
68690;SDS011;55675;49.588;8.640;2022-10-30T10:11:02;13.73;;;7.07;;
68690;SDS011;55675;49.588;8.640;2022-10-30T10:13:38;11.30;;;7.00;;
68690;SDS011;55675;49.588;8.640;2022-10-30T10:16:22;9.93;;;6.13;;
68690;SDS011;55675;49.588;8.640;2022-10-30T10:18:57;12.10;;;7.13;;
68690;SDS011;55675;49.588;8.640;2022-10-30T10:21:35;10.57;;;6.63;;
68690;SDS011;55675;49.588;8.640;2022-10-30T10:24:12;10.70;;;6.60;;
68690;SDS011;55675;49.588;8.640;2022-10-30T10:26:48;8.63;;;6.43;;
68690;SDS011;55675;49.588;8.640;2022-10-30T10:29:33;11.23;;;6.87;;
68690;SDS011;55675;49.588;8.640;2022-10-30T10:38:04;12.03;;;6.53;;
68690;SDS011;55675;49.588;8.640;2022-10-30T10:40:43;10.17;;;6.33;;
68690;SDS011;55675;49.588;8.640;2022-10-30T10:51:37;11.73;;;5.90;;
68690;SDS011;55675;49.588;8.640;2022-10-30T10:54:19;11.37;;;6.30;;
68690;SDS011;55675;49.588;8.640;2022-10-30T10:56:48;10.77;;;6.07;;
68690;SDS011;55675;49.588;8.640;2022-10-30T10:59:17;12.03;;;6.23;;
68690;SDS011;55675;49.588;8.640;2022-10-30T11:01:55;9.97;;;5.67;;
68690;SDS011;55675;49.588;8.640;2022-10-30T11:04:42;12.77;;;6.00;;
68690;SDS011;55675;49.588;8.640;2022-10-30T11:07:24;8.90;;;5.40;;
68690;SDS011;55675;49.588;8.640;2022-10-30T11:09:54;10.63;;;4.30;;
68690;SDS011;55675;49.588;8.640;2022-10-30T11:12:25;10.83;;;5.07;;
68690;SDS011;55675;49.588;8.640;2022-10-30T11:14:58;11.47;;;4.20;;
68690;SDS011;55675;49.588;8.640;2022-10-30T11:17:44;8.97;;;4.00;;
68690;SDS011;55675;49.588;8.640;2022-10-30T11:20:28;8.93;;;3.73;;
68690;SDS011;55675;49.588;8.640;2022-10-30T11:25:55;10.03;;;4.73;;
68690;SDS011;55675;49.588;8.640;2022-10-30T11:28:55;9.20;;;4.20;;
68690;SDS011;55675;49.588;8.640;2022-10-30T11:33:51;7.87;;;3.90;;
68690;SDS011;55675;49.588;8.640;2022-10-30T11:36:20;6.20;;;3.67;;
68690;SDS011;55675;49.588;8.640;2022-10-30T11:38:48;9.57;;;3.60;;
68690;SDS011;55675;49.588;8.640;2022-10-30T11:41:14;7.17;;;3.37;;
68690;SDS011;55675;49.588;8.640;2022-10-30T11:43:41;6.73;;;3.53;;
68690;SDS011;55675;49.588;8.640;2022-10-30T11:46:08;11.30;;;3.93;;
68690;SDS011;55675;49.588;8.640;2022-10-30T11:48:42;8.50;;;3.77;;
68690;SDS011;55675;49.588;8.640;2022-10-30T11:51:09;7.17;;;3.73;;
68690;SDS011;55675;49.588;8.640;2022-10-30T11:53:38;7.73;;;3.83;;
68690;SDS011;55675;49.588;8.640;2022-10-30T11:56:13;7.43;;;3.47;;
68690;SDS011;55675;49.588;8.640;2022-10-30T11:58:41;7.47;;;3.60;;
68690;SDS011;55675;49.588;8.640;2022-10-30T12:03:41;7.90;;;3.47;;
68690;SDS011;55675;49.588;8.640;2022-10-30T12:06:17;6.77;;;3.47;;
68690;SDS011;55675;49.588;8.640;2022-10-30T12:08:59;6.33;;;3.20;;
68690;SDS011;55675;49.588;8.640;2022-10-30T12:11:31;6.80;;;3.67;;
68690;SDS011;55675;49.588;8.640;2022-10-30T12:13:58;7.43;;;3.60;;
68690;SDS011;55675;49.588;8.640;2022-10-30T12:16:24;8.23;;;3.83;;
68690;SDS011;55675;49.588;8.640;2022-10-30T12:19:01;8.93;;;3.63;;
68690;SDS011;55675;49.588;8.640;2022-10-30T12:21:30;10.40;;;3.13;;
68690;SDS011;55675;49.588;8.640;2022-10-30T12:24:02;6.27;;;3.40;;
68690;SDS011;55675;49.588;8.640;2022-10-30T12:26:31;8.90;;;3.27;;
68690;SDS011;55675;49.588;8.640;2022-10-30T12:28:59;7.63;;;3.30;;
68690;SDS011;55675;49.588;8.640;2022-10-30T12:31:32;4.03;;;2.50;;
68690;SDS011;55675;49.588;8.640;2022-10-30T12:36:35;6.47;;;3.37;;
68690;SDS011;55675;49.588;8.640;2022-10-30T12:41:41;5.10;;;2.83;;
68690;SDS011;55675;49.588;8.640;2022-10-30T12:46:43;6.10;;;3.13;;
68690;SDS011;55675;49.588;8.640;2022-10-30T12:52:23;7.97;;;2.60;;
68690;SDS011;55675;49.588;8.640;2022-10-30T13:00:21;7.23;;;3.10;;
68690;SDS011;55675;49.588;8.640;2022-10-30T13:02:58;6.97;;;3.17;;
68690;SDS011;55675;49.588;8.640;2022-10-30T13:05:39;9.80;;;2.87;;
68690;SDS011;55675;49.588;8.640;2022-10-30T13:13:46;9.87;;;3.13;;
68690;SDS011;55675;49.588;8.640;2022-10-30T13:16:15;6.83;;;3.13;;
68690;SDS011;55675;49.588;8.640;2022-10-30T13:18:54;6.70;;;3.37;;
68690;SDS011;55675;49.588;8.640;2022-10-30T13:21:23;9.50;;;4.53;;
68690;SDS011;55675;49.588;8.640;2022-10-30T13:30:09;7.00;;;3.30;;
68690;SDS011;55675;49.588;8.640;2022-10-30T13:32:18;6.90;;;3.27;;
68690;SDS011;55675;49.588;8.640;2022-10-30T13:35:11;7.20;;;2.87;;
68690;SDS011;55675;49.588;8.640;2022-10-30T13:40:41;8.20;;;3.23;;
68690;SDS011;55675;49.588;8.640;2022-10-30T13:51:41;5.07;;;2.50;;
68690;SDS011;55675;49.588;8.640;2022-10-30T13:56:44;7.43;;;3.13;;
68690;SDS011;55675;49.588;8.640;2022-10-30T14:02:11;7.90;;;3.57;;
68690;SDS011;55675;49.588;8.640;2022-10-30T14:04:49;9.07;;;3.50;;
68690;SDS011;55675;49.588;8.640;2022-10-30T14:07:28;8.10;;;3.73;;
68690;SDS011;55675;49.588;8.640;2022-10-30T14:10:02;5.67;;;3.20;;
68690;SDS011;55675;49.588;8.640;2022-10-30T14:12:49;8.97;;;3.40;;
68690;SDS011;55675;49.588;8.640;2022-10-30T14:15:31;5.00;;;2.90;;
68690;SDS011;55675;49.588;8.640;2022-10-30T14:20:39;6.63;;;2.87;;
68690;SDS011;55675;49.588;8.640;2022-10-30T14:23:24;5.13;;;2.77;;
68690;SDS011;55675;49.588;8.640;2022-10-30T14:28:26;8.77;;;3.47;;
68690;SDS011;55675;49.588;8.640;2022-10-30T14:31:34;5.53;;;3.20;;
68690;SDS011;55675;49.588;8.640;2022-10-30T14:36:16;7.80;;;3.33;;
68690;SDS011;55675;49.588;8.640;2022-10-30T14:41:26;5.70;;;3.23;;
68690;SDS011;55675;49.588;8.640;2022-10-30T14:46:47;8.23;;;4.07;;
68690;SDS011;55675;49.588;8.640;2022-10-30T14:58:12;6.13;;;4.00;;
68690;SDS011;55675;49.588;8.640;2022-10-30T15:06:23;7.57;;;4.00;;
68690;SDS011;55675;49.588;8.640;2022-10-30T15:09:16;7.77;;;4.63;;
68690;SDS011;55675;49.588;8.640;2022-10-30T15:14:33;8.23;;;4.47;;
68690;SDS011;55675;49.588;8.640;2022-10-30T15:17:03;7.17;;;4.30;;
68690;SDS011;55675;49.588;8.640;2022-10-30T15:19:28;6.77;;;4.17;;
68690;SDS011;55675;49.588;8.640;2022-10-30T15:21:57;9.80;;;4.17;;
68690;SDS011;55675;49.588;8.640;2022-10-30T15:24:24;6.77;;;3.90;;
68690;SDS011;55675;49.588;8.640;2022-10-30T15:26:52;6.97;;;4.30;;
68690;SDS011;55675;49.588;8.640;2022-10-30T15:29:20;10.60;;;3.90;;
68690;SDS011;55675;49.588;8.640;2022-10-30T15:32:01;7.63;;;4.10;;
68690;SDS011;55675;49.588;8.640;2022-10-30T15:34:28;8.57;;;3.80;;
68690;SDS011;55675;49.588;8.640;2022-10-30T15:36:55;7.37;;;3.73;;
68690;SDS011;55675;49.588;8.640;2022-10-30T15:39:21;8.07;;;4.00;;
68690;SDS011;55675;49.588;8.640;2022-10-30T15:41:57;9.50;;;4.50;;
68690;SDS011;55675;49.588;8.640;2022-10-30T15:44:26;7.07;;;3.83;;
68690;SDS011;55675;49.588;8.640;2022-10-30T15:46:54;8.77;;;4.20;;
68690;SDS011;55675;49.588;8.640;2022-10-30T15:51:56;10.47;;;5.40;;
68690;SDS011;55675;49.588;8.640;2022-10-30T15:54:23;10.60;;;5.20;;
68690;SDS011;55675;49.588;8.640;2022-10-30T15:56:51;9.00;;;4.90;;
68690;SDS011;55675;49.588;8.640;2022-10-30T15:59:29;11.60;;;5.27;;
68690;SDS011;55675;49.588;8.640;2022-10-30T16:01:59;6.10;;;4.70;;
68690;SDS011;55675;49.588;8.640;2022-10-30T16:04:26;9.23;;;4.50;;
68690;SDS011;55675;49.588;8.640;2022-10-30T16:06:56;13.27;;;5.30;;
68690;SDS011;55675;49.588;8.640;2022-10-30T16:09:28;10.37;;;5.00;;
68690;SDS011;55675;49.588;8.640;2022-10-30T16:11:54;8.93;;;4.73;;
68690;SDS011;55675;49.588;8.640;2022-10-30T16:14:23;8.43;;;4.70;;
68690;SDS011;55675;49.588;8.640;2022-10-30T16:16:54;10.97;;;4.80;;
68690;SDS011;55675;49.588;8.640;2022-10-30T16:19:27;8.90;;;5.00;;
68690;SDS011;55675;49.588;8.640;2022-10-30T16:21:57;10.87;;;6.80;;
68690;SDS011;55675;49.588;8.640;2022-10-30T16:24:33;8.80;;;6.07;;
68690;SDS011;55675;49.588;8.640;2022-10-30T16:29:29;12.10;;;8.57;;
68690;SDS011;55675;49.588;8.640;2022-10-30T16:31:55;14.43;;;8.50;;
68690;SDS011;55675;49.588;8.640;2022-10-30T16:34:22;13.10;;;9.47;;
68690;SDS011;55675;49.588;8.640;2022-10-30T16:36:50;13.93;;;6.47;;
68690;SDS011;55675;49.588;8.640;2022-10-30T16:39:16;11.10;;;6.33;;
68690;SDS011;55675;49.588;8.640;2022-10-30T16:41:44;11.43;;;7.60;;
68690;SDS011;55675;49.588;8.640;2022-10-30T16:44:17;9.20;;;6.20;;
68690;SDS011;55675;49.588;8.640;2022-10-30T16:46:53;9.40;;;6.90;;
68690;SDS011;55675;49.588;8.640;2022-10-30T16:49:21;9.83;;;7.90;;
68690;SDS011;55675;49.588;8.640;2022-10-30T16:51:52;9.17;;;7.20;;
68690;SDS011;55675;49.588;8.640;2022-10-30T16:54:39;12.50;;;6.90;;
68690;SDS011;55675;49.588;8.640;2022-10-30T16:57:12;10.00;;;6.07;;
68690;SDS011;55675;49.588;8.640;2022-10-30T16:59:46;10.40;;;7.53;;
68690;SDS011;55675;49.588;8.640;2022-10-30T17:02:22;12.50;;;9.47;;
68690;SDS011;55675;49.588;8.640;2022-10-30T17:04:52;7.50;;;6.63;;
68690;SDS011;55675;49.588;8.640;2022-10-30T17:07:23;12.73;;;6.53;;
68690;SDS011;55675;49.588;8.640;2022-10-30T17:09:53;9.87;;;6.63;;
68690;SDS011;55675;49.588;8.640;2022-10-30T17:14:51;10.83;;;6.10;;
68690;SDS011;55675;49.588;8.640;2022-10-30T17:17:33;8.67;;;6.17;;